• Join FlightAware (Why Join?)
  • Login
  • US Flag 
Gobble Gobble! 
09:40AM EST


 

Airport Tracker/Info


-or-


 

Live Flight TrackerFlight Track Log ✈ AWE849 ✈ 03-Jul-2014 ✈ KATL - KPHL

Flight Track Log - Related Links

Times and Time Zones

All times are in EDT time to prevent confusion due to time zone crossing. See the AWE849 flight status page for this flight to view local times or setup timezone preferences in your user account.

Time Position Orientation Groundspeed Altitude Reporting Facility
EDT Latitude Longitude Course Direction KTS MPH feet Rate Location/Type
12:05AM 33.6500 -84.5167 47° Northeast 236 272 3,100  Level Atlanta TRACON
12:06AM 33.6500 -84.6000 270° West 266 306 7,000 2,940 Climbing Atlanta TRACON
12:08AM 33.7428 -84.6508 336° Northwest 227 261 12,300 2,040 Climbing Atlanta Center
12:09AM 33.7639 -84.5386 77° East 189 217 13,400 1,500 Climbing Atlanta Center
12:10AM 33.7917 -84.3914 77° East 313 360 15,300 1,800 Climbing Atlanta Center
12:11AM 34.0734 -83.8598 47° Northeast  Level Estimated
12:11AM 33.8192 -84.2589 76° East 356 410 17,100  Level Atlanta Center
12:12AM 33.8464 -84.1314 76° East 411 473 18,500 1,500 Climbing Atlanta Center
12:13AM 33.8736 -83.9861 77° East 426 490 20,200 1,500 Climbing Atlanta Center
12:14AM 33.9025 -83.8436 76° East 439 505 21,600 1,200 Climbing Atlanta Center
12:15AM 33.9400 -83.6958 73° East 444 511 22,700 1,020 Climbing Atlanta Center
12:16AM 34.0208 -83.5700 52° Northeast 444 511 23,700 840 Climbing Atlanta Center
12:17AM 34.1017 -83.4392 53° Northeast 466 536 24,400 840 Climbing Atlanta Center
12:18AM 34.1908 -83.3081 51° Northeast 489 563 25,400 1,200 Climbing Atlanta Center
12:19AM 34.2756 -83.1742 53° Northeast 494 568 26,800 1,200 Climbing Atlanta Center
12:20AM 34.3642 -83.0447 50° Northeast 494 568 27,900 1,080 Climbing Atlanta Center
12:21AM 34.4486 -82.9153 52° Northeast 494 568 29,000 1,080 Climbing Atlanta Center
12:22AM 34.5308 -82.7806 53° Northeast 494 568 30,100 1,200 Climbing Atlanta Center
12:23AM 34.6169 -82.6456 52° Northeast 494 568 31,400 1,440 Climbing Atlanta Center
12:24AM 34.7133 -82.5050 50° Northeast 487 560 33,000 1,440 Climbing Atlanta Center
12:25AM 34.7972 -82.3744 52° Northeast 487 560 34,300 1,140 Climbing Atlanta Center
12:26AM 34.8789 -82.2461 52° Northeast 487 560 35,300 900 Climbing Atlanta Center
12:27AM 34.9564 -82.1253 52° Northeast 487 560 36,100 660 Climbing Atlanta Center
12:28AM 35.0397 -81.9942 52° Northeast 492 566 36,700 420 Climbing Atlanta Center
12:29AM 35.1253 -81.8600 52° Northeast 492 566 37,000 120 Climbing Atlanta Center
12:30AM 35.2144 -81.7203 52° Northeast 497 572 37,000 180 Level Atlanta Center
12:31AM 35.2994 -81.5831 53° Northeast 502 578 37,400 720 Climbing Atlanta Center
12:32AM 35.3842 -81.4456 53° Northeast 502 578 38,500 780 Climbing Atlanta Center
12:33AM 35.4625 -81.3106 55° Northeast 497 572 39,000 240 Climbing Atlanta Center
12:34AM 35.5511 -81.1644 53° Northeast 503 579 39,000  Level Atlanta Center
12:35AM 35.6536 -81.0075 51° Northeast 530 610 39,000  Level Atlanta Center
12:36AM 35.7378 -80.8714 53° Northeast 524 603 39,000  Level Atlanta Center
12:37AM 35.8239 -80.7325 53° Northeast 511 588 39,000  Level Atlanta Center
12:38AM 35.9097 -80.5906 53° Northeast 511 588 39,000  Level Atlanta Center
12:41AM 36.0842 -80.3031 53° Northeast 524 603 39,000  Level Washington Center
12:42AM 36.1778 -80.1492 53° Northeast 512 589 39,000  Level Washington Center
12:43AM 36.2556 -80.0225 53° Northeast 486 559 39,000  Level Washington Center
12:44AM 36.3397 -79.8853 53° Northeast 481 554 39,000  Level Washington Center
12:45AM 36.4111 -79.7550 56° Northeast 494 568 39,000  Level Washington Center
12:46AM 36.4908 -79.6222 53° Northeast 494 568 39,000  Level Washington Center
12:47AM 36.5706 -79.4869 54° Northeast 487 560 39,000  Level Washington Center
12:48AM 36.6542 -79.3486 53° Northeast 487 560 39,000  Level Washington Center
12:49AM 36.7314 -79.2125 55° Northeast 487 560 39,000  Level Washington Center
12:50AM 36.8125 -79.0786 53° Northeast 487 560 39,000  Level Washington Center
12:51AM 36.8917 -78.9394 55° Northeast 487 560 39,000  Level Washington Center
12:52AM 36.9706 -78.8025 54° Northeast 487 560 39,000  Level Washington Center
12:53AM 37.0656 -78.6814 45° Northeast 487 560 39,000  Level Washington Center
12:54AM 37.1664 -78.5683 42° Northeast 487 560 39,000  Level Washington Center
12:55AM 37.2672 -78.4522 42° Northeast 487 560 39,000  Level Washington Center
12:56AM 37.3681 -78.3383 42° Northeast 487 560 39,000  Level Washington Center
12:57AM 37.4686 -78.2189 43° Northeast 487 560 39,000 -540 Level Washington Center
12:58AM 37.5692 -78.1044 42° Northeast 487 560 38,000 -960 Descending Washington Center
12:59AM 37.6697 -77.9844 43° Northeast 487 560 37,100 -540 Descending Washington Center
01:00AM 37.7700 -77.8669 43° Northeast 487 560 37,000 -60 Descending Washington Center
01:01AM 37.8744 -77.7436 43° Northeast 487 560 37,000  Level Washington Center
01:02AM 37.9767 -77.6228 43° Northeast 487 560 37,000 -420 Level Washington Center
01:03AM 38.0767 -77.5042 43° Northeast 487 560 36,200 -1,080 Descending Washington Center
01:04AM 38.1767 -77.3772 45° Northeast 487 560 34,900 -1,320 Descending Washington Center
01:05AM 38.2600 -77.2286 54° Northeast 499 574 33,600 -1,440 Descending Washington Center
01:06AM 38.3414 -77.0767 56° Northeast 509 586 32,000 -1,980 Descending Washington Center
01:07AM 38.4511 -76.9675 38° Northeast 509 586 29,800 -2,220 Descending Washington Center
01:08AM 38.5686 -76.8794 30° Northeast 494 568 27,700 -1,920 Descending Washington Center
01:09AM 38.6800 -76.7964 30° Northeast 478 550 25,900 -1,920 Descending Washington Center
01:10AM 38.7811 -76.7047 35° Northeast 453 521 23,900 -1,560 Descending Washington Center
01:11AM 38.8717 -76.6047 41° Northeast 438 504 22,900 -1,800 Descending Washington Center
01:12AM 38.9183 -76.4775 65° Northeast 399 459 20,400 -2,220 Descending Washington Center
01:13AM 38.9506 -76.3417 73° East 394 453 18,500 -2,040 Descending Washington Center
01:14AM 39.0500 -76.1000 62° Northeast 379 436 14,700 -2,400 Descending Philadelphia TRACON
01:15AM 39.0833 -75.9833 70° East 369 425 11,900 -2,340 Descending Philadelphia TRACON
01:16AM 39.1167 -75.8500 72° East 364 419 10,100 -900 Descending Philadelphia TRACON
01:17AM 39.1833 -75.7500 49° Northeast 346 398 10,100  Level Philadelphia TRACON
01:18AM 39.2500 -75.6667 44° Northeast 337 388 10,100 -60 Level Philadelphia TRACON
01:19AM 39.3167 -75.5833 44° Northeast 333 383 10,000  Descending Philadelphia TRACON
01:20AM 39.3833 -75.5000 44° Northeast 343 395 10,100  Climbing Philadelphia TRACON
01:21AM 39.4500 -75.4167 44° Northeast 315 362 10,100  Level Philadelphia TRACON
01:22AM 39.5167 -75.3500 38° Northeast 319 367 10,100 -60 Level Philadelphia TRACON
01:23AM 39.5667 -75.2667 52° Northeast 321 369 10,000 -600 Descending Philadelphia TRACON
01:24AM 39.6333 -75.1833 44° Northeast 318 366 8,900 -1,320 Descending Philadelphia TRACON
01:25AM 39.7000 -75.1000 44° Northeast 309 356 7,400 -1,740 Descending Philadelphia TRACON
01:26AM 39.7667 -75.0500 30° Northeast 296 341 5,500 -1,920 Descending Philadelphia TRACON
01:27AM 39.8333 -75.0000 30° Northeast 273 314 3,600 -1,440 Descending Philadelphia TRACON
01:28AM 39.9000 -75.0333 339° North 217 250 2,700 -840 Descending Philadelphia TRACON
01:29AM 39.9000 -75.1000 270° West 187 215 2,000 -840 Descending Philadelphia TRACON
01:30AM 39.8833 -75.1500 247° West 151 174 1,100 -840 Descending Philadelphia TRACON
01:31AM 39.8833 -75.2000 270° West 136 157 400 -720 Descending Philadelphia TRACON
01:33AM 39.8667 -75.2333 255° West  Level FlightAware Approximate
01:40AM 39.8722 -75.2409 255° West  Level Estimated